Time;durP1;ratioP1;P1;durP2;ratioP2;P2;SDS_P1;SDS_P2;PMS_P1;PMS_P2;Temp;Humidity;BMP_temperature;BMP_pressure;BME280_temperature;BME280_humidity;BME280_pressure;Samples;Min_cycle;Max_cycle;Signal;HPM_P1;HPM_P2
2022/01/07 00:05:08;;;;;;;;;;;;;;;;;;;;;
2022/01/07 00:10:56;;;;;;;14.90;6.77;;;;;;;-3.05;100.00;100480.63;9869790;29;20070;-94
2022/01/07 00:16:16;;;;;;;14.83;5.90;;;;;;;-4.48;100.00;100358.59;9878400;29;20130;-95
2022/01/07 00:36:03;;;;;;;;;;;;;;;;;;;;;
2022/01/07 01:23:55;;;;;;;14.23;5.77;;;;;;;-6.15;100.00;100173.66;9851568;30;20058;-95
2022/01/07 01:29:53;;;;;;;15.03;5.57;;;;;;;1.39;100.00;101170.84;9853619;30;20166;-93
2022/01/07 01:41:23;;;;;;;;;;;;;;;;;;;;;
2022/01/07 01:47:35;;;;;;;;;;;;;;;;;;;;;
2022/01/07 01:53:27;;;;;;;;;;;;;;;;;;;;;
2022/01/07 01:59:44;;;;;;;;;;;;;;;;;;;;;
2022/01/07 02:05:41;;;;;;;;;;;;;;;;;;;;;
2022/01/07 02:11:59;;;;;;;;;;;;;;;;;;;;;
2022/01/07 02:18:18;;;;;;;;;;;;;;;;;;;;;
2022/01/07 02:24:02;;;;;;;;;;;;;;;;;;;;;
2022/01/07 02:30:07;;;;;;;;;;;;;;;;;;;;;
2022/01/07 02:41:34;;;;;;;;;;;;;;;;;;;;;
2022/01/07 02:53:07;;;;;;;22.03;9.17;;;;;;;-6.63;100.00;99958.28;9837764;30;20044;-92
2022/01/07 02:59:05;;;;;;;24.50;10.30;;;;;;;0.82;100.00;101002.53;9832861;30;20055;-90
2022/01/07 03:04:48;;;;;;;;;;;;;;;;;;;;;
2022/01/07 03:11:02;;;;;;;;;;;;;;;;;;;;;
2022/01/07 03:17:42;;;;;;;;;;;;;;;;;;;;;
2022/01/07 03:23:31;;;;;;;;;;;;;;;;;;;;;
2022/01/07 03:29:09;;;;;;;;;;;;;;;;;;;;;
2022/01/07 03:34:30;;;;;;;22.80;12.50;;;;;;;-3.86;100.00;100409.91;9886833;29;20046;-94
2022/01/07 03:39:59;;;;;;;28.25;12.23;;;;;;;-3.40;100.00;100338.44;9874395;29;20043;-94
2022/01/07 03:45:11;;;;;;;25.10;12.50;;;;;;;-1.84;100.00;100584.38;9865172;29;20031;-89
2022/01/07 03:50:21;;;;;;;21.45;13.13;;;;;;;-3.76;100.00;100511.09;9885911;29;20066;-94
2022/01/07 03:55:33;;;;;;;22.97;13.00;;;;;;;-0.99;100.00;100787.78;9855994;29;20040;-91
2022/01/07 04:00:45;;;;;;;23.57;13.40;;;;;;;-3.96;100.00;100282.88;9872614;29;20088;-95
2022/01/07 04:06:17;;;;;;;23.90;13.43;;;;;;;-5.80;100.00;100010.84;9872288;29;20078;-94
2022/01/07 04:11:37;;;;;;;32.17;13.98;;;;;;;-5.86;100.00;100142.88;9873152;29;20051;-89
2022/01/07 04:17:06;;;;;;;;;;;;;;;;;;;;;
2022/01/07 04:22:28;;;;;;;;;;;;;;;;;;;;;
2022/01/07 04:27:59;;;;;;;;;;;;;;;;;;;;;
2022/01/07 04:33:34;;;;;;;26.27;13.77;;;;;;;-3.93;100.00;100255.63;9822489;30;20047;-93
2022/01/07 04:39:12;;;;;;;25.57;14.13;;;;;;;0.81;100.00;100877.03;9890176;29;20454;-93
2022/01/07 04:44:42;;;;;;;;;;;;;;;;;;;;;
2022/01/07 04:50:23;;;;;;;28.10;14.37;;;;;;;-5.96;100.00;99921.41;9868599;29;20557;-92
2022/01/07 05:01:49;;;;;;;;;;;;;;;;;;;;;
2022/01/07 05:07:36;;;;;;;;;;;;;;;;;;;;;
2022/01/07 05:13:03;;;;;;;26.17;14.00;;;;;;;-0.59;100.00;100668.63;9895255;29;20047;-91
2022/01/07 05:18:41;;;;;;;;;;;;;;;;;;;;;
2022/01/07 05:29:57;;;;;;;24.43;13.47;;;;;;;-6.25;100.00;99814.00;9810000;30;20400;-92
2022/01/07 05:35:25;;;;;;;22.55;12.15;;;;;;;-5.12;100.00;99854.66;9800190;30;20116;-92
2022/01/07 05:40:57;;;;;;;22.83;12.90;;;;;;;-5.99;100.00;99907.53;9806410;30;20040;-91
2022/01/07 05:46:07;;;;;;;20.07;11.70;;;;;;;-2.22;100.00;100428.88;9791046;30;20437;-91
2022/01/07 05:51:41;;;;;;;;;;;;;;;;;;;;;
2022/01/07 05:57:06;;;;;;;19.80;10.90;;;;;;;-4.45;100.00;99990.16;9889757;29;20042;-90
2022/01/07 06:02:06;;;;;;;17.98;11.38;;;;;;;1.16;100.00;100996.53;9852425;29;20039;-91
2022/01/07 06:07:20;;;;;;;22.67;11.30;;;;;;;-4.81;100.00;100102.69;9866640;29;20031;-92
2022/01/07 06:12:40;;;;;;;18.30;11.03;;;;;;;-5.92;100.00;99850.34;9869149;29;20051;-89
2022/01/07 06:18:12;;;;;;;20.03;11.33;;;;;;;-0.95;100.00;100693.63;9859659;29;20142;-91
2022/01/07 06:23:40;;;;;;;16.25;9.95;;;;;;;-5.59;100.00;99810.00;9844982;30;20429;-89
2022/01/07 06:29:02;;;;;;;16.93;11.03;;;;;;;-3.37;100.00;100312.03;9852880;30;20122;-90
2022/01/07 06:34:26;;;;;;;;;;;;;;;;;;;;;
2022/01/07 06:39:41;;;;;;;16.13;9.90;;;;;;;-1.00;100.00;100593.38;9832461;30;20040;-92
2022/01/07 06:45:09;;;;;;;15.37;9.57;;;;;;;-3.56;100.00;100111.47;9821397;30;20059;-91
2022/01/07 06:50:22;;;;;;;16.07;9.23;;;;;;;-6.21;100.00;99561.66;9831066;30;20070;-92
2022/01/07 06:55:25;;;;;;;14.40;9.67;;;;;;;-4.78;100.00;99990.34;9829035;30;20065;-92
2022/01/07 07:00:34;;;;;;;16.20;10.35;;;;;;;-1.60;100.00;100450.22;9828791;30;20571;-92
2022/01/07 07:05:34;;;;;;;13.55;7.32;;;;;;;-3.67;100.00;100216.84;9828762;30;20063;-90
2022/01/07 07:10:51;;;;;;;15.43;9.60;;;;;;;-5.26;100.00;99882.25;9829948;30;20051;-90
2022/01/07 07:16:17;;;;;;;;;;;;;;;;;;;;;
2022/01/07 07:21:23;;;;;;;12.77;9.40;;;;;;;-5.20;100.00;99892.28;9831479;30;20059;-91
2022/01/07 07:26:31;;;;;;;18.52;10.70;;;;;;;-2.36;100.00;100239.94;9828435;30;20082;-92
2022/01/07 07:31:41;;;;;;;15.33;9.93;;;;;;;-1.89;100.00;100305.31;9828818;30;20103;-90
2022/01/07 07:36:54;;;;;;;;;;;;;;;;;;;;;
2022/01/07 07:42:15;;;;;;;17.07;10.70;;;;;;;-4.39;100.00;99973.31;9825634;30;20055;-91
2022/01/07 07:47:18;;;;;;;19.85;11.32;;;;;;;-3.20;100.00;100170.06;9840362;30;20046;-90
2022/01/07 07:52:21;;;;;;;18.37;11.13;;;;;;;-3.75;100.00;100096.66;9841852;30;20409;-91
2022/01/07 07:57:35;;;;;;;18.30;11.82;;;;;;;-1.58;100.00;100286.19;9842085;30;20046;-90
2022/01/07 08:02:59;;;;;;;17.80;12.10;;;;;;;0.12;100.00;100564.16;9816456;30;20056;-92
2022/01/07 08:08:04;;;;;;;17.83;11.88;;;;;;;-3.31;100.00;100025.13;9813486;30;20513;-92
2022/01/07 08:18:11;;;;;;;23.03;15.13;;;;;;;-5.74;100.00;99634.84;9826521;30;20035;-90
2022/01/07 08:23:22;;;;;;;30.27;15.00;;;;;;;-2.94;100.00;100236.13;9829170;30;20054;-89
2022/01/07 08:28:41;;;;;;;22.60;13.98;;;;;;;-2.48;100.00;100225.22;9834207;30;20052;-88
2022/01/07 08:40:14;;;;;;;;;;;;;;;;;;;;;
2022/01/07 08:45:25;;;;;;;30.17;16.03;;;;;;;-3.13;100.00;100152.16;9856159;30;20051;-86
2022/01/07 08:50:26;;;;;;;33.10;17.47;;;;;;;-0.23;100.00;100677.66;9831688;30;20405;-89
2022/01/07 08:55:30;;;;;;;27.33;15.13;;;;;;;-1.37;100.00;100530.28;9834114;30;20068;-89
2022/01/07 09:00:33;;;;;;;30.00;16.38;;;;;;;-4.03;100.00;99978.09;9832956;30;20036;-91
2022/01/07 09:05:47;;;;;;;23.10;15.47;;;;;;;1.45;100.00;100791.28;9831469;30;20040;-90
2022/01/07 09:10:48;;;;;;;29.80;16.37;;;;;;;-5.30;100.00;99658.25;9832698;30;20050;-89
2022/01/07 09:15:48;;;;;;;30.60;17.95;;;;;;;-3.18;100.00;100138.41;9831664;30;20042;-90
2022/01/07 09:20:49;;;;;;;27.47;16.37;;;;;;;0.60;100.00;100696.31;9833966;30;20520;-90
2022/01/07 09:25:50;;;;;;;28.33;16.40;;;;;;;-1.45;100.00;100240.47;9833325;30;20055;-91
2022/01/07 09:30:53;;;;;;;35.33;17.35;;;;;;;1.07;100.00;100658.75;9844379;30;20032;-90
2022/01/07 09:35:56;;;;;;;28.83;17.05;;;;;;;-2.70;100.00;100076.94;9844391;30;20032;-91
2022/01/07 09:41:00;;;;;;;30.15;17.35;;;;;;;-3.01;100.00;99982.06;9831473;30;20031;-90
2022/01/07 09:46:03;;;;;;;29.80;17.05;;;;;;;2.79;100.00;100989.44;9844531;30;20063;-88
2022/01/07 09:51:03;;;;;;;27.77;16.70;;;;;;;-0.65;100.00;100505.28;9829790;30;20048;-88
2022/01/07 09:56:04;;;;;;;30.58;19.08;;;;;;;-2.96;100.00;99996.63;9844074;30;20104;-89
2022/01/07 10:01:19;;;;;;;35.33;18.48;;;;;;;-3.16;100.00;99868.97;9830156;30;20460;-90
2022/01/07 10:06:23;;;;;;;34.58;19.92;;;;;;;-1.59;100.00;100154.97;9846540;30;20063;-90
2022/01/07 10:11:24;;;;;;;39.83;20.48;;;;;;;-0.65;100.00;100352.00;9830852;30;20043;-91
2022/01/07 10:16:27;;;;;;;38.92;18.65;;;;;;;-1.06;100.00;100177.03;9830702;30;20489;-89
2022/01/07 10:21:28;;;;;;;40.50;18.65;;;;;;;0.38;100.00;100570.88;9829421;30;20142;-89
2022/01/07 10:26:37;;;;;;;34.45;18.23;;;;;;;-3.07;100.00;99914.47;9843690;30;20138;-90
2022/01/07 10:32:01;;;;;;;;;;;;;;;;;;;;;
2022/01/07 10:38:11;;;;;;;;;;;;;;;;;;;;;
2022/01/07 10:56:28;;;;;;;;;;;;;;;;;;;;;
2022/01/07 11:07:59;;;;;;;;;;;;;;;;;;;;;
2022/01/07 11:18:56;;;;;;;13.52;8.32;;;;;;;-2.72;100.00;99806.88;9800180;30;20170;-91
2022/01/07 11:24:31;;;;;;;;;;;;;;;;;;;;;
2022/01/07 11:29:57;;;;;;;16.65;7.95;;;;;;;-1.05;100.00;100164.38;9785978;30;20425;-91
2022/01/07 11:35:59;;;;;;;;;;;;;;;;;;;;;
2022/01/07 11:41:56;;;;;;;;;;;;;;;;;;;;;
2022/01/07 11:48:08;;;;;;;;;;;;;;;;;;;;;
2022/01/07 11:53:29;;;;;;;15.55;8.75;;;;;;;1.61;100.00;100259.16;9827417;30;20032;-90
2022/01/07 11:59:01;;;;;;;;;;;;;;;;;;;;;
2022/01/07 12:04:12;;;;;;;15.38;9.07;;;;;;;4.15;100.00;100711.53;9823147;30;20036;-93
2022/01/07 12:09:28;;;;;;;17.40;8.95;;;;;;;-0.88;100.00;100148.69;9819324;30;20040;-88
2022/01/07 12:14:49;;;;;;;17.00;9.30;;;;;;;-0.12;100.00;100288.56;9802735;30;20449;-90
2022/01/07 12:20:24;;;;;;;20.75;9.00;;;;;;;-1.85;100.00;99808.31;9786331;30;20060;-95
2022/01/07 12:32:28;;;;;;;;;;;;;;;;;;;;;
2022/01/07 12:38:04;;;;;;;;;;;;;;;;;;;;;
2022/01/07 12:43:55;;;;;;;;;;;;;;;;;;;;;
2022/01/07 12:49:16;;;;;;;21.20;11.82;;;;;;;0.92;100.00;100380.50;9830525;30;20041;-92
2022/01/07 12:54:19;;;;;;;17.48;11.05;;;;;;;-1.65;100.00;99754.44;9804073;30;20062;-89
2022/01/07 12:59:25;;;;;;;20.60;11.38;;;;;;;-3.05;100.00;99750.03;9804006;30;20036;-91
2022/01/07 13:04:34;;;;;;;20.67;10.85;;;;;;;-3.47;100.00;99724.78;9790648;30;20047;-93
2022/01/07 13:09:34;;;;;;;18.17;7.50;;;;;;;2.10;100.00;100526.66;9793973;30;20085;-91
2022/01/07 13:14:45;;;;;;;14.90;6.88;;;;;;;-2.12;100.00;99836.16;9858550;30;20028;-89
2022/01/07 13:19:50;;;;;;;7.68;4.05;;;;;;;-2.38;100.00;99929.25;9847378;30;20047;-92
2022/01/07 13:25:03;;;;;;;13.93;5.05;;;;;;;-0.97;100.00;100125.53;9833445;30;20052;-91
2022/01/07 13:30:13;;;;;;;9.73;3.17;;;;;;;-1.37;100.00;99780.47;9848878;30;20052;-90
2022/01/07 13:35:20;;;;;;;6.70;3.63;;;;;;;1.24;100.00;100058.13;9830876;30;20043;-91
2022/01/07 13:41:03;;;;;;;9.88;3.08;;;;;;;-0.79;100.00;99728.59;9846345;30;20044;-91
2022/01/07 13:46:39;;;;;;;;;;;;;;;;;;;;;
2022/01/07 13:51:56;;;;;;;9.27;2.08;;;;;;;-1.11;100.00;100060.63;9846610;30;20135;-91
2022/01/07 13:57:25;;;;;;;9.47;2.53;;;;;;;1.96;100.00;100500.53;9847432;30;20046;-92
2022/01/07 14:02:33;;;;;;;7.30;1.60;;;;;;;-1.51;100.00;100049.56;9861230;30;20055;-93
2022/01/07 14:07:39;;;;;;;10.18;2.45;;;;;;;-1.84;100.00;99990.75;9845550;30;20074;-93
2022/01/07 14:13:00;;;;;;;8.93;1.80;;;;;;;-1.04;100.00;100283.03;9833285;30;20059;-90
2022/01/07 14:18:29;;;;;;;4.63;2.20;;;;;;;-3.35;100.00;99661.34;9830017;30;20032;-92
2022/01/07 14:24:31;;;;;;;;;;;;;;;;;;;;;
2022/01/07 14:30:04;;;;;;;;;;;;;;;;;;;;;
2022/01/07 14:35:58;;;;;;;;;;;;;;;;;;;;;
2022/01/07 14:41:12;;;;;;;8.98;4.00;;;;;;;-0.74;100.00;100350.47;9835436;30;20043;-91
2022/01/07 14:46:50;;;;;;;;;;;;;;;;;;;;;
2022/01/07 14:52:14;;;;;;;;;;;;;;;;;;;;;
2022/01/07 14:57:46;;;;;;;9.37;3.60;;;;;;;-1.96;100.00;100121.78;9832959;30;20112;-91
2022/01/07 15:03:12;;;;;;;7.87;3.83;;;;;;;-0.67;100.00;100332.44;9841406;30;20044;-90
2022/01/07 15:19:34;;;;;;;15.47;5.30;;;;;;;-4.96;100.00;99565.66;9860039;30;20036;-88
2022/01/07 15:24:44;;;;;;;11.40;4.30;;;;;;;-1.73;100.00;100266.50;9856494;30;20043;-90
2022/01/07 15:30:16;;;;;;;11.57;5.13;;;;;;;-3.49;100.00;99964.44;9842520;30;20097;-90
2022/01/07 15:35:30;;;;;;;9.23;4.95;;;;;;;2.01;100.00;100848.31;9856177;30;20509;-91
2022/01/07 15:41:13;;;;;;;14.27;5.27;;;;;;;-2.40;100.00;100028.34;9845580;30;20036;-92
2022/01/07 15:52:40;;;;;;;14.40;5.90;;;;;;;-4.39;100.00;99989.44;9850834;30;20074;-91
2022/01/07 15:58:51;;;;;;;;;;;;;;;;;;;;;
2022/01/07 16:04:47;;;;;;;;;;;;;;;;;;;;;
2022/01/07 16:10:22;;;;;;;20.97;8.03;;;;;;;-2.24;100.00;100251.91;9857201;30;20052;-91
2022/01/07 16:16:15;;;;;;;;;;;;;;;;;;;;;
2022/01/07 16:22:07;;;;;;;24.40;9.40;;;;;;;0.42;100.00;100721.13;9827573;30;20474;-91
2022/01/07 16:27:22;;;;;;;22.38;9.60;;;;;;;-5.28;100.00;99587.31;9844100;30;20044;-91
2022/01/07 16:33:19;;;;;;;;;;;;;;;;;;;;;
2022/01/07 16:38:45;;;;;;;23.98;8.38;;;;;;;-1.81;100.00;100134.41;9852725;30;20126;-89
2022/01/07 16:51:07;;;;;;;11.53;4.33;;;;;;;0.56;100.00;100619.16;9852629;30;20036;-91
2022/01/07 16:56:30;;;;;;;11.90;3.80;;;;;;;-2.40;100.00;100038.31;9845808;30;20074;-88
2022/01/07 17:15:06;;;;;;;;;;;;;;;;;;;;;
2022/01/07 17:21:21;;;;;;;;;;;;;;;;;;;;;
2022/01/07 17:27:50;;;;;;;;;;;;;;;;;;;;;
2022/01/07 17:33:49;;;;;;;10.73;3.77;;;;;;;1.66;100.00;100707.13;9799785;30;20472;-93
2022/01/07 17:39:32;;;;;;;;;;;;;;;;;;;;;
2022/01/07 17:45:36;;;;;;;9.30;1.40;;;;;;;-3.73;100.00;99882.16;9790153;30;20052;-92
2022/01/07 17:52:04;;;;;;;14.37;3.53;;;;;;;-4.48;100.00;99845.47;9799811;30;20128;-94
2022/01/07 17:57:32;;;;;;;;;;;;;;;;;;;;;
2022/01/07 18:03:35;;;;;;;9.67;2.70;;;;;;;-5.41;100.00;99626.53;9671445;30;20634;-92
2022/01/07 18:09:14;;;;;;;;;;;;;;;;;;;;;
2022/01/07 18:15:17;;;;;;;;;;;;;;;;;;;;;
2022/01/07 18:20:52;;;;;;;;;;;;;;;;;;;;;
2022/01/07 18:27:01;;;;;;;4.22;1.00;;;;;;;0.93;100.00;100691.19;9816575;29;20055;-92
2022/01/07 18:39:37;;;;;;;;;;;;;;;;;;;;;
2022/01/07 18:45:06;;;;;;;;;;;;;;;;;;;;;
2022/01/07 18:56:31;;;;;;;15.27;4.07;;;;;;;-6.09;100.00;99816.63;9815848;29;20064;-92
2022/01/07 19:01:34;;;;;;;10.50;1.90;;;;;;;-2.04;100.00;100491.44;9868714;29;20477;-90
2022/01/07 19:06:47;;;;;;;9.13;2.00;;;;;;;-4.44;100.00;100101.16;9865777;29;20112;-92
2022/01/07 19:12:21;;;;;;;10.47;2.20;;;;;;;-4.14;100.00;100104.84;9866602;29;20038;-93
2022/01/07 19:18:22;;;;;;;;;;;;;;;;;;;;;
2022/01/07 19:24:59;;;;;;;10.07;2.57;;;;;;;0.95;100.00;100743.34;9892607;29;20039;-92
2022/01/07 19:30:53;;;;;;;8.40;2.70;;;;;;;-3.67;100.00;100138.81;9875564;29;20039;-93
2022/01/07 19:36:52;;;;;;;;;;;;;;;;;;;;;
2022/01/07 19:42:50;;;;;;;;;;;;;;;;;;;;;
2022/01/07 19:54:15;;;;;;;;;;;;;;;;;;;;;
2022/01/07 20:06:25;;;;;;;;;;;;;;;;;;;;;
2022/01/07 20:18:47;;;;;;;;;;;;;;;;;;;;;
2022/01/07 20:24:22;;;;;;;;;;;;;;;;;;;;;
2022/01/07 20:30:02;;;;;;;;;;;;;;;;;;;;;
2022/01/07 20:36:00;;;;;;;;;;;;;;;;;;;;;
2022/01/07 20:41:24;;;;;;;9.53;3.20;;;;;;;-3.19;100.00;100149.34;9700565;30;20591;-93
2022/01/07 20:46:24;;;;;;;11.10;2.90;;;;;;;-3.62;100.00;100135.59;9787379;30;20055;-94
2022/01/07 20:51:55;;;;;;;7.43;3.30;;;;;;;-5.54;100.00;99925.66;9894650;29;20134;-89
2022/01/07 20:57:06;;;;;;;8.50;3.07;;;;;;;-6.43;100.00;99723.13;9886830;29;20035;-94
2022/01/07 21:02:06;;;;;;;15.23;5.33;;;;;;;-4.36;100.00;100112.72;9884945;29;20046;-94
2022/01/07 21:07:10;;;;;;;21.50;7.07;;;;;;;-6.91;100.00;99889.00;9885546;29;20058;-90
2022/01/07 21:17:56;;;;;;;16.60;6.67;;;;;;;-4.32;100.00;100221.53;9894315;29;20136;-94
2022/01/07 21:28:55;;;;;;;;;;;;;;;;;;;;;
2022/01/07 21:34:34;;;;;;;18.33;9.37;;;;;;;-6.16;100.00;99748.66;9850766;30;20054;-94
2022/01/07 21:40:53;;;;;;;;;;;;;;;;;;;;;
2022/01/07 21:45:55;;;;;;;20.50;10.73;;;;;;;-4.84;100.00;100329.38;9715585;30;20121;-91
2022/01/07 21:51:32;;;;;;;;;;;;;;;;;;;;;
2022/01/07 21:57:23;;;;;;;23.43;12.27;;;;;;;-4.57;100.00;100201.94;9705545;30;20037;-95
2022/01/07 22:03:15;;;;;;;34.37;11.47;;;;;;;-3.62;100.00;100370.47;9732561;30;20109;-95
2022/01/07 22:08:29;;;;;;;;;;;;;;;;;;;;;
2022/01/07 22:14:10;;;;;;;23.80;12.00;;;;;;;-5.23;100.00;100179.75;9814049;29;20417;-94
2022/01/07 22:19:59;;;;;;;;;;;;;;;;;;;;;
2022/01/07 22:25:33;;;;;;;18.73;9.77;;;;;;;-6.09;100.00;100111.38;9780218;30;20143;-91
2022/01/07 22:30:56;;;;;;;23.30;10.30;;;;;;;-2.16;100.00;100546.84;9765789;30;20053;-90
2022/01/07 22:36:31;;;;;;;;;;;;;;;;;;;;;
2022/01/07 22:55:10;;;;;;;;;;;;;;;;;;;;;
2022/01/07 23:01:36;;;;;;;;;;;;;;;;;;;;;
2022/01/07 23:08:15;;;;;;;;;;;;;;;;;;;;;
2022/01/07 23:27:22;;;;;;;;;;;;;;;;;;;;;
2022/01/07 23:40:37;;;;;;;;;;;;;;;;;;;;;
